sensor_id;sensor_type;location;lat;lon;timestamp;temperature;humidity
1083;DHT22;530;51.448;7.238;2022-12-29T00:01:36;10.10;99.90
1083;DHT22;530;51.448;7.238;2022-12-29T00:04:03;10.10;99.90
1083;DHT22;530;51.448;7.238;2022-12-29T00:06:31;10.10;99.90
1083;DHT22;530;51.448;7.238;2022-12-29T00:08:57;10.20;99.90
1083;DHT22;530;51.448;7.238;2022-12-29T00:11:25;10.20;99.90
1083;DHT22;530;51.448;7.238;2022-12-29T00:13:51;10.10;99.90
1083;DHT22;530;51.448;7.238;2022-12-29T00:16:37;10.20;99.90
1083;DHT22;530;51.448;7.238;2022-12-29T00:19:05;10.20;99.90
1083;DHT22;530;51.448;7.238;2022-12-29T00:21:31;10.20;99.90
1083;DHT22;530;51.448;7.238;2022-12-29T00:24:17;10.20;99.90
1083;DHT22;530;51.448;7.238;2022-12-29T00:27:10;10.20;99.90
1083;DHT22;530;51.448;7.238;2022-12-29T00:29:55;10.20;99.90
1083;DHT22;530;51.448;7.238;2022-12-29T00:32:39;10.20;99.90
1083;DHT22;530;51.448;7.238;2022-12-29T00:37:52;10.20;99.90
1083;DHT22;530;51.448;7.238;2022-12-29T00:40:38;9.90;99.90
1083;DHT22;530;51.448;7.238;2022-12-29T00:43:22;10.20;99.90
1083;DHT22;530;51.448;7.238;2022-12-29T00:46:06;10.20;99.90
1083;DHT22;530;51.448;7.238;2022-12-29T00:48:32;10.10;99.90
1083;DHT22;530;51.448;7.238;2022-12-29T00:51:16;10.20;99.90
1083;DHT22;530;51.448;7.238;2022-12-29T00:53:42;10.20;99.90
1083;DHT22;530;51.448;7.238;2022-12-29T00:56:08;10.20;99.90
1083;DHT22;530;51.448;7.238;2022-12-29T00:58:33;10.20;99.90
1083;DHT22;530;51.448;7.238;2022-12-29T01:01:03;10.20;99.90
1083;DHT22;530;51.448;7.238;2022-12-29T01:03:30;10.30;99.90
1083;DHT22;530;51.448;7.238;2022-12-29T01:05:56;10.20;99.90
1083;DHT22;530;51.448;7.238;2022-12-29T01:08:21;10.20;99.90
1083;DHT22;530;51.448;7.238;2022-12-29T01:11:00;10.30;99.90
1083;DHT22;530;51.448;7.238;2022-12-29T01:13:26;10.30;99.90
1083;DHT22;530;51.448;7.238;2022-12-29T01:15:53;10.30;99.90
1083;DHT22;530;51.448;7.238;2022-12-29T01:18:20;10.30;99.90
1083;DHT22;530;51.448;7.238;2022-12-29T01:20:45;10.30;99.90
1083;DHT22;530;51.448;7.238;2022-12-29T01:23:11;10.40;99.90
1083;DHT22;530;51.448;7.238;2022-12-29T01:25:37;10.00;99.90
1083;DHT22;530;51.448;7.238;2022-12-29T01:28:03;10.30;99.90
1083;DHT22;530;51.448;7.238;2022-12-29T01:30:29;10.30;99.90
1083;DHT22;530;51.448;7.238;2022-12-29T01:32:54;10.40;99.90
1083;DHT22;530;51.448;7.238;2022-12-29T01:35:20;10.40;99.90
1083;DHT22;530;51.448;7.238;2022-12-29T01:37:46;10.40;99.90
1083;DHT22;530;51.448;7.238;2022-12-29T01:40:11;10.40;99.90
1083;DHT22;530;51.448;7.238;2022-12-29T01:42:37;10.40;99.90
1083;DHT22;530;51.448;7.238;2022-12-29T01:45:09;10.40;99.90
1083;DHT22;530;51.448;7.238;2022-12-29T01:50:06;10.40;99.90
1083;DHT22;530;51.448;7.238;2022-12-29T01:52:35;10.40;99.90
1083;DHT22;530;51.448;7.238;2022-12-29T01:55:03;10.40;99.90
1083;DHT22;530;51.448;7.238;2022-12-29T01:57:33;10.40;99.90
1083;DHT22;530;51.448;7.238;2022-12-29T02:00:10;10.40;99.90
1083;DHT22;530;51.448;7.238;2022-12-29T02:02:37;10.50;99.90
1083;DHT22;530;51.448;7.238;2022-12-29T02:05:11;10.50;99.90
1083;DHT22;530;51.448;7.238;2022-12-29T02:07:38;10.50;99.90
1083;DHT22;530;51.448;7.238;2022-12-29T02:10:05;10.50;99.90
1083;DHT22;530;51.448;7.238;2022-12-29T02:12:31;10.40;99.90
1083;DHT22;530;51.448;7.238;2022-12-29T02:15:00;10.40;99.90
1083;DHT22;530;51.448;7.238;2022-12-29T02:17:45;10.50;99.90
1083;DHT22;530;51.448;7.238;2022-12-29T02:23:05;10.50;99.90
1083;DHT22;530;51.448;7.238;2022-12-29T02:31:31;10.60;99.90
1083;DHT22;530;51.448;7.238;2022-12-29T02:39:42;10.50;99.90
1083;DHT22;530;51.448;7.238;2022-12-29T02:42:41;10.50;99.90
1083;DHT22;530;51.448;7.238;2022-12-29T02:45:22;10.60;99.90
1083;DHT22;530;51.448;7.238;2022-12-29T02:53:01;10.60;99.90
1083;DHT22;530;51.448;7.238;2022-12-29T02:55:28;10.60;99.90
1083;DHT22;530;51.448;7.238;2022-12-29T03:00:37;10.60;99.90
1083;DHT22;530;51.448;7.238;2022-12-29T03:03:27;10.60;99.90
1083;DHT22;530;51.448;7.238;2022-12-29T03:11:19;10.70;99.90
1083;DHT22;530;51.448;7.238;2022-12-29T03:14:12;10.70;99.90
1083;DHT22;530;51.448;7.238;2022-12-29T03:17:08;10.70;99.90
1083;DHT22;530;51.448;7.238;2022-12-29T03:19:39;10.70;99.90
1083;DHT22;530;51.448;7.238;2022-12-29T03:22:14;10.70;99.90
1083;DHT22;530;51.448;7.238;2022-12-29T03:24:54;10.70;99.90
1083;DHT22;530;51.448;7.238;2022-12-29T03:27:29;10.80;99.90
1083;DHT22;530;51.448;7.238;2022-12-29T03:30:00;10.80;99.90
1083;DHT22;530;51.448;7.238;2022-12-29T03:35:08;10.80;99.90
1083;DHT22;530;51.448;7.238;2022-12-29T03:37:41;10.80;99.90
1083;DHT22;530;51.448;7.238;2022-12-29T03:40:09;10.80;99.90
1083;DHT22;530;51.448;7.238;2022-12-29T03:42:36;10.80;99.90
1083;DHT22;530;51.448;7.238;2022-12-29T03:45:04;10.80;99.90
1083;DHT22;530;51.448;7.238;2022-12-29T03:47:31;10.80;99.90
1083;DHT22;530;51.448;7.238;2022-12-29T03:49:56;10.80;99.90
1083;DHT22;530;51.448;7.238;2022-12-29T03:52:22;10.80;99.90
1083;DHT22;530;51.448;7.238;2022-12-29T03:54:48;10.90;99.90
1083;DHT22;530;51.448;7.238;2022-12-29T03:57:13;10.80;99.90
1083;DHT22;530;51.448;7.238;2022-12-29T03:59:39;10.80;99.90
1083;DHT22;530;51.448;7.238;2022-12-29T04:02:05;10.80;99.90
1083;DHT22;530;51.448;7.238;2022-12-29T04:04:30;10.70;99.90
1083;DHT22;530;51.448;7.238;2022-12-29T04:06:56;10.70;99.90
1083;DHT22;530;51.448;7.238;2022-12-29T04:09:22;10.70;99.90
1083;DHT22;530;51.448;7.238;2022-12-29T04:11:47;10.70;99.90
1083;DHT22;530;51.448;7.238;2022-12-29T04:14:13;10.70;99.90
1083;DHT22;530;51.448;7.238;2022-12-29T04:16:39;10.70;99.90
1083;DHT22;530;51.448;7.238;2022-12-29T04:19:05;10.60;99.90
1083;DHT22;530;51.448;7.238;2022-12-29T04:21:31;10.70;99.90
1083;DHT22;530;51.448;7.238;2022-12-29T04:23:57;10.70;99.90
1083;DHT22;530;51.448;7.238;2022-12-29T04:26:23;10.70;99.90
1083;DHT22;530;51.448;7.238;2022-12-29T04:28:48;10.70;99.90
1083;DHT22;530;51.448;7.238;2022-12-29T04:31:14;10.70;99.90
1083;DHT22;530;51.448;7.238;2022-12-29T04:33:39;10.70;99.90
1083;DHT22;530;51.448;7.238;2022-12-29T04:36:06;10.60;99.90
1083;DHT22;530;51.448;7.238;2022-12-29T04:38:31;10.70;99.90
1083;DHT22;530;51.448;7.238;2022-12-29T04:41:00;10.70;99.90
1083;DHT22;530;51.448;7.238;2022-12-29T04:43:26;10.70;99.90
1083;DHT22;530;51.448;7.238;2022-12-29T04:45:52;10.80;99.90
1083;DHT22;530;51.448;7.238;2022-12-29T04:48:18;10.80;99.90
1083;DHT22;530;51.448;7.238;2022-12-29T04:50:46;10.80;99.90
1083;DHT22;530;51.448;7.238;2022-12-29T04:53:12;10.80;99.90
1083;DHT22;530;51.448;7.238;2022-12-29T04:55:38;10.80;99.90
1083;DHT22;530;51.448;7.238;2022-12-29T04:58:03;10.90;99.90
1083;DHT22;530;51.448;7.238;2022-12-29T05:00:29;11.00;99.90
1083;DHT22;530;51.448;7.238;2022-12-29T05:02:55;11.00;99.90
1083;DHT22;530;51.448;7.238;2022-12-29T05:05:20;11.00;99.90
1083;DHT22;530;51.448;7.238;2022-12-29T05:07:46;11.00;99.90
1083;DHT22;530;51.448;7.238;2022-12-29T05:10:12;11.00;99.90
1083;DHT22;530;51.448;7.238;2022-12-29T05:12:38;11.00;99.90
1083;DHT22;530;51.448;7.238;2022-12-29T05:15:05;11.00;99.90
1083;DHT22;530;51.448;7.238;2022-12-29T05:17:33;11.00;99.90
1083;DHT22;530;51.448;7.238;2022-12-29T05:19:59;11.10;99.90
1083;DHT22;530;51.448;7.238;2022-12-29T05:22:25;11.10;99.90
1083;DHT22;530;51.448;7.238;2022-12-29T05:24:51;11.10;99.90
1083;DHT22;530;51.448;7.238;2022-12-29T05:27:16;11.10;99.90
1083;DHT22;530;51.448;7.238;2022-12-29T05:29:42;11.10;99.90
1083;DHT22;530;51.448;7.238;2022-12-29T05:32:08;11.10;99.90
1083;DHT22;530;51.448;7.238;2022-12-29T05:34:33;11.10;99.90
1083;DHT22;530;51.448;7.238;2022-12-29T05:36:59;11.20;99.90
1083;DHT22;530;51.448;7.238;2022-12-29T05:39:25;11.20;99.90
1083;DHT22;530;51.448;7.238;2022-12-29T05:41:50;11.10;99.90
1083;DHT22;530;51.448;7.238;2022-12-29T05:44:16;11.10;99.90
1083;DHT22;530;51.448;7.238;2022-12-29T05:46:42;11.20;99.90
1083;DHT22;530;51.448;7.238;2022-12-29T05:49:07;11.20;99.90
1083;DHT22;530;51.448;7.238;2022-12-29T05:51:33;11.20;99.90
1083;DHT22;530;51.448;7.238;2022-12-29T05:53:59;11.20;99.90
1083;DHT22;530;51.448;7.238;2022-12-29T05:56:24;11.20;99.90
1083;DHT22;530;51.448;7.238;2022-12-29T05:58:50;11.20;99.90
1083;DHT22;530;51.448;7.238;2022-12-29T06:01:16;11.20;99.90
1083;DHT22;530;51.448;7.238;2022-12-29T06:03:41;11.20;99.90
1083;DHT22;530;51.448;7.238;2022-12-29T06:06:07;11.20;99.90
1083;DHT22;530;51.448;7.238;2022-12-29T06:08:33;11.20;99.90
1083;DHT22;530;51.448;7.238;2022-12-29T06:10:59;11.20;99.90
1083;DHT22;530;51.448;7.238;2022-12-29T06:13:25;11.30;99.90
1083;DHT22;530;51.448;7.238;2022-12-29T06:15:51;11.20;99.90
1083;DHT22;530;51.448;7.238;2022-12-29T06:18:17;11.20;99.90
1083;DHT22;530;51.448;7.238;2022-12-29T06:20:42;11.20;99.90
1083;DHT22;530;51.448;7.238;2022-12-29T06:23:08;11.20;99.90
1083;DHT22;530;51.448;7.238;2022-12-29T06:25:34;11.20;99.90
1083;DHT22;530;51.448;7.238;2022-12-29T06:28:02;11.20;99.90
1083;DHT22;530;51.448;7.238;2022-12-29T06:30:27;11.20;99.90
1083;DHT22;530;51.448;7.238;2022-12-29T06:32:53;11.20;99.90
1083;DHT22;530;51.448;7.238;2022-12-29T06:35:20;11.20;99.90
1083;DHT22;530;51.448;7.238;2022-12-29T06:37:48;11.20;99.90
1083;DHT22;530;51.448;7.238;2022-12-29T06:40:13;11.20;99.90
1083;DHT22;530;51.448;7.238;2022-12-29T06:42:39;11.30;99.90
1083;DHT22;530;51.448;7.238;2022-12-29T06:45:05;11.20;99.90
1083;DHT22;530;51.448;7.238;2022-12-29T06:47:31;11.20;99.90
1083;DHT22;530;51.448;7.238;2022-12-29T06:49:57;11.30;99.90
1083;DHT22;530;51.448;7.238;2022-12-29T06:52:22;11.20;99.90
1083;DHT22;530;51.448;7.238;2022-12-29T06:54:49;11.20;99.90
1083;DHT22;530;51.448;7.238;2022-12-29T06:57:15;11.20;99.90
1083;DHT22;530;51.448;7.238;2022-12-29T06:59:41;11.20;99.90
1083;DHT22;530;51.448;7.238;2022-12-29T07:02:06;11.20;99.90
1083;DHT22;530;51.448;7.238;2022-12-29T07:04:32;11.20;99.90
1083;DHT22;530;51.448;7.238;2022-12-29T07:06:58;11.20;99.90
1083;DHT22;530;51.448;7.238;2022-12-29T07:09:23;11.20;99.90
1083;DHT22;530;51.448;7.238;2022-12-29T07:11:49;11.20;99.90
1083;DHT22;530;51.448;7.238;2022-12-29T07:14:15;11.20;99.90
1083;DHT22;530;51.448;7.238;2022-12-29T07:16:41;11.20;99.90
1083;DHT22;530;51.448;7.238;2022-12-29T07:19:06;11.20;99.90
1083;DHT22;530;51.448;7.238;2022-12-29T07:21:32;11.20;99.90
1083;DHT22;530;51.448;7.238;2022-12-29T07:23:58;11.20;99.90
1083;DHT22;530;51.448;7.238;2022-12-29T07:26:23;11.20;99.90
1083;DHT22;530;51.448;7.238;2022-12-29T07:28:49;11.20;99.90
1083;DHT22;530;51.448;7.238;2022-12-29T07:31:20;11.20;99.90
1083;DHT22;530;51.448;7.238;2022-12-29T07:33:47;11.10;99.90
1083;DHT22;530;51.448;7.238;2022-12-29T07:36:13;11.20;99.90
1083;DHT22;530;51.448;7.238;2022-12-29T07:38:40;11.10;99.90
1083;DHT22;530;51.448;7.238;2022-12-29T07:41:05;11.10;99.90
1083;DHT22;530;51.448;7.238;2022-12-29T07:43:31;11.10;99.90
1083;DHT22;530;51.448;7.238;2022-12-29T07:45:57;11.10;99.90
1083;DHT22;530;51.448;7.238;2022-12-29T07:48:22;11.00;99.90
1083;DHT22;530;51.448;7.238;2022-12-29T07:50:48;11.10;99.90
1083;DHT22;530;51.448;7.238;2022-12-29T07:53:14;11.10;99.90
1083;DHT22;530;51.448;7.238;2022-12-29T07:55:40;11.10;99.90
1083;DHT22;530;51.448;7.238;2022-12-29T07:58:07;11.10;99.90
1083;DHT22;530;51.448;7.238;2022-12-29T08:00:33;11.10;99.90
1083;DHT22;530;51.448;7.238;2022-12-29T08:02:59;11.10;99.90
1083;DHT22;530;51.448;7.238;2022-12-29T08:05:24;11.10;99.90
1083;DHT22;530;51.448;7.238;2022-12-29T08:07:50;11.10;99.90
1083;DHT22;530;51.448;7.238;2022-12-29T08:10:16;11.10;99.90
1083;DHT22;530;51.448;7.238;2022-12-29T08:12:42;11.00;99.90
1083;DHT22;530;51.448;7.238;2022-12-29T08:15:10;11.10;99.90
1083;DHT22;530;51.448;7.238;2022-12-29T08:17:36;11.00;99.90
1083;DHT22;530;51.448;7.238;2022-12-29T08:20:03;11.00;99.90
1083;DHT22;530;51.448;7.238;2022-12-29T08:22:29;11.00;99.90
1083;DHT22;530;51.448;7.238;2022-12-29T08:24:55;11.00;99.90
1083;DHT22;530;51.448;7.238;2022-12-29T08:27:20;11.00;99.90
1083;DHT22;530;51.448;7.238;2022-12-29T08:29:46;11.00;99.90
1083;DHT22;530;51.448;7.238;2022-12-29T08:32:12;11.00;99.90
1083;DHT22;530;51.448;7.238;2022-12-29T08:34:38;11.00;99.90
1083;DHT22;530;51.448;7.238;2022-12-29T08:37:03;11.00;99.90
1083;DHT22;530;51.448;7.238;2022-12-29T08:39:29;11.00;99.90
1083;DHT22;530;51.448;7.238;2022-12-29T08:41:55;11.10;99.90
1083;DHT22;530;51.448;7.238;2022-12-29T08:44:21;11.10;99.90
1083;DHT22;530;51.448;7.238;2022-12-29T08:46:47;11.00;99.90
1083;DHT22;530;51.448;7.238;2022-12-29T08:49:13;11.00;99.90
1083;DHT22;530;51.448;7.238;2022-12-29T08:51:39;11.00;99.90
1083;DHT22;530;51.448;7.238;2022-12-29T08:54:04;11.00;99.90
1083;DHT22;530;51.448;7.238;2022-12-29T08:56:30;11.00;99.90
1083;DHT22;530;51.448;7.238;2022-12-29T08:58:56;11.00;99.90
1083;DHT22;530;51.448;7.238;2022-12-29T09:01:22;11.10;99.90
1083;DHT22;530;51.448;7.238;2022-12-29T09:03:48;11.00;99.90
1083;DHT22;530;51.448;7.238;2022-12-29T09:06:16;11.00;99.90
1083;DHT22;530;51.448;7.238;2022-12-29T09:08:43;11.00;99.90
1083;DHT22;530;51.448;7.238;2022-12-29T09:11:20;11.00;99.90
1083;DHT22;530;51.448;7.238;2022-12-29T09:13:46;11.00;99.90
1083;DHT22;530;51.448;7.238;2022-12-29T09:16:12;10.90;99.90
1083;DHT22;530;51.448;7.238;2022-12-29T09:18:39;10.90;99.90
1083;DHT22;530;51.448;7.238;2022-12-29T09:21:05;10.90;99.90
1083;DHT22;530;51.448;7.238;2022-12-29T09:23:33;11.00;99.90
1083;DHT22;530;51.448;7.238;2022-12-29T09:25:59;11.30;99.90
1083;DHT22;530;51.448;7.238;2022-12-29T09:28:26;11.40;99.90
1083;DHT22;530;51.448;7.238;2022-12-29T09:30:52;11.60;99.90
1083;DHT22;530;51.448;7.238;2022-12-29T09:33:18;11.90;99.90
1083;DHT22;530;51.448;7.238;2022-12-29T09:35:44;12.20;99.90
1083;DHT22;530;51.448;7.238;2022-12-29T09:38:11;12.40;99.90
1083;DHT22;530;51.448;7.238;2022-12-29T09:40:37;12.50;99.90
1083;DHT22;530;51.448;7.238;2022-12-29T09:48:41;12.20;99.90
1083;DHT22;530;51.448;7.238;2022-12-29T09:51:12;12.10;99.90
1083;DHT22;530;51.448;7.238;2022-12-29T09:53:50;12.00;99.90
1083;DHT22;530;51.448;7.238;2022-12-29T09:56:21;12.00;99.90
1083;DHT22;530;51.448;7.238;2022-12-29T09:59:15;11.90;99.90
1083;DHT22;530;51.448;7.238;2022-12-29T10:04:47;11.70;99.90
1083;DHT22;530;51.448;7.238;2022-12-29T10:07:30;11.60;99.90
1083;DHT22;530;51.448;7.238;2022-12-29T10:10:30;11.60;99.90
1083;DHT22;530;51.448;7.238;2022-12-29T10:13:16;11.60;99.90
1083;DHT22;530;51.448;7.238;2022-12-29T10:23:49;11.50;99.90
1083;DHT22;530;51.448;7.238;2022-12-29T10:26:26;11.50;99.90
1083;DHT22;530;51.448;7.238;2022-12-29T10:28:59;11.60;99.90
1083;DHT22;530;51.448;7.238;2022-12-29T10:36:50;11.60;99.90
1083;DHT22;530;51.448;7.238;2022-12-29T10:39:25;11.60;99.90
1083;DHT22;530;51.448;7.238;2022-12-29T10:42:14;11.60;99.90
1083;DHT22;530;51.448;7.238;2022-12-29T10:44:41;11.70;99.90
1083;DHT22;530;51.448;7.238;2022-12-29T10:47:15;11.70;99.90
1083;DHT22;530;51.448;7.238;2022-12-29T10:49:45;11.70;99.90
1083;DHT22;530;51.448;7.238;2022-12-29T10:52:12;11.70;99.90
1083;DHT22;530;51.448;7.238;2022-12-29T10:55:02;11.60;99.90
1083;DHT22;530;51.448;7.238;2022-12-29T10:57:43;11.60;99.90
1083;DHT22;530;51.448;7.238;2022-12-29T11:00:13;11.60;99.90
1083;DHT22;530;51.448;7.238;2022-12-29T11:02:49;11.50;99.90
1083;DHT22;530;51.448;7.238;2022-12-29T11:05:38;11.60;99.90
1083;DHT22;530;51.448;7.238;2022-12-29T11:08:16;11.50;99.90
1083;DHT22;530;51.448;7.238;2022-12-29T11:10:44;11.50;99.90
1083;DHT22;530;51.448;7.238;2022-12-29T11:13:12;11.40;99.90
1083;DHT22;530;51.448;7.238;2022-12-29T11:15:46;11.40;99.90
1083;DHT22;530;51.448;7.238;2022-12-29T11:18:20;11.40;99.90
1083;DHT22;530;51.448;7.238;2022-12-29T11:20:46;11.40;99.90
1083;DHT22;530;51.448;7.238;2022-12-29T11:23:37;11.30;99.90
1083;DHT22;530;51.448;7.238;2022-12-29T11:26:24;11.30;99.90
1083;DHT22;530;51.448;7.238;2022-12-29T11:31:48;11.30;99.90
1083;DHT22;530;51.448;7.238;2022-12-29T11:34:31;11.20;99.90
1083;DHT22;530;51.448;7.238;2022-12-29T11:37:10;11.20;99.90
1083;DHT22;530;51.448;7.238;2022-12-29T11:39:41;11.30;99.90
1083;DHT22;530;51.448;7.238;2022-12-29T11:42:14;11.20;99.90
1083;DHT22;530;51.448;7.238;2022-12-29T11:44:48;11.20;99.90
1083;DHT22;530;51.448;7.238;2022-12-29T11:47:28;11.20;99.90
1083;DHT22;530;51.448;7.238;2022-12-29T11:49:58;11.20;99.90
1083;DHT22;530;51.448;7.238;2022-12-29T11:52:28;11.20;99.90
1083;DHT22;530;51.448;7.238;2022-12-29T11:54:55;11.20;99.90
1083;DHT22;530;51.448;7.238;2022-12-29T11:57:23;11.20;99.90
1083;DHT22;530;51.448;7.238;2022-12-29T12:05:40;11.20;99.90
1083;DHT22;530;51.448;7.238;2022-12-29T12:08:17;11.10;99.90
1083;DHT22;530;51.448;7.238;2022-12-29T12:10:57;11.10;99.90
1083;DHT22;530;51.448;7.238;2022-12-29T12:13:34;11.10;99.90
1083;DHT22;530;51.448;7.238;2022-12-29T12:19:16;11.10;99.90
1083;DHT22;530;51.448;7.238;2022-12-29T12:21:50;11.10;99.90
1083;DHT22;530;51.448;7.238;2022-12-29T12:24:47;11.10;99.90
1083;DHT22;530;51.448;7.238;2022-12-29T12:27:20;11.10;99.90
1083;DHT22;530;51.448;7.238;2022-12-29T12:35:29;11.10;99.90
1083;DHT22;530;51.448;7.238;2022-12-29T12:54:43;11.10;99.90
1083;DHT22;530;51.448;7.238;2022-12-29T13:00:23;11.00;99.90
1083;DHT22;530;51.448;7.238;2022-12-29T13:08:38;11.00;99.90
1083;DHT22;530;51.448;7.238;2022-12-29T13:14:10;11.10;99.90
1083;DHT22;530;51.448;7.238;2022-12-29T13:17:00;11.00;99.90
1083;DHT22;530;51.448;7.238;2022-12-29T13:19:41;11.00;99.90
1083;DHT22;530;51.448;7.238;2022-12-29T13:22:44;11.00;99.90
1083;DHT22;530;51.448;7.238;2022-12-29T13:33:17;11.00;99.90
1083;DHT22;530;51.448;7.238;2022-12-29T13:37:04;10.90;99.90
1083;DHT22;530;51.448;7.238;2022-12-29T13:39:16;10.90;99.90
1083;DHT22;530;51.448;7.238;2022-12-29T13:41:49;10.90;99.90
1083;DHT22;530;51.448;7.238;2022-12-29T13:44:27;11.00;99.90
1083;DHT22;530;51.448;7.238;2022-12-29T13:46:54;11.00;99.90
1083;DHT22;530;51.448;7.238;2022-12-29T13:49:22;10.90;99.90
1083;DHT22;530;51.448;7.238;2022-12-29T13:51:57;10.90;99.90
1083;DHT22;530;51.448;7.238;2022-12-29T13:59:50;10.90;99.90
1083;DHT22;530;51.448;7.238;2022-12-29T14:08:03;10.80;99.90
1083;DHT22;530;51.448;7.238;2022-12-29T14:10:34;10.90;99.90
1083;DHT22;530;51.448;7.238;2022-12-29T14:13:24;10.90;99.90
1083;DHT22;530;51.448;7.238;2022-12-29T14:15:56;10.80;99.90
1083;DHT22;530;51.448;7.238;2022-12-29T14:18:32;10.90;99.90
1083;DHT22;530;51.448;7.238;2022-12-29T14:21:04;10.90;99.90
1083;DHT22;530;51.448;7.238;2022-12-29T14:23:47;10.80;99.90
1083;DHT22;530;51.448;7.238;2022-12-29T14:28:47;10.80;99.90
1083;DHT22;530;51.448;7.238;2022-12-29T14:36:41;10.90;99.90
1083;DHT22;530;51.448;7.238;2022-12-29T14:42:00;10.80;99.90
1083;DHT22;530;51.448;7.238;2022-12-29T14:44:26;10.90;99.90
1083;DHT22;530;51.448;7.238;2022-12-29T14:46:56;10.90;99.90
1083;DHT22;530;51.448;7.238;2022-12-29T14:49:25;10.90;99.90
1083;DHT22;530;51.448;7.238;2022-12-29T14:51:53;10.80;99.90
1083;DHT22;530;51.448;7.238;2022-12-29T14:57:14;10.80;99.90
1083;DHT22;530;51.448;7.238;2022-12-29T14:59:42;10.80;99.90
1083;DHT22;530;51.448;7.238;2022-12-29T15:02:17;10.80;99.90
1083;DHT22;530;51.448;7.238;2022-12-29T15:04:44;10.80;99.90
1083;DHT22;530;51.448;7.238;2022-12-29T15:07:11;10.80;99.90
1083;DHT22;530;51.448;7.238;2022-12-29T15:09:46;10.80;99.90
1083;DHT22;530;51.448;7.238;2022-12-29T15:12:41;10.70;99.90
1083;DHT22;530;51.448;7.238;2022-12-29T15:15:25;10.80;99.90
1083;DHT22;530;51.448;7.238;2022-12-29T15:17:52;10.80;99.90
1083;DHT22;530;51.448;7.238;2022-12-29T15:20:29;10.70;99.90
1083;DHT22;530;51.448;7.238;2022-12-29T15:23:04;10.60;99.90
1083;DHT22;530;51.448;7.238;2022-12-29T15:25:35;10.70;99.90
1083;DHT22;530;51.448;7.238;2022-12-29T15:28:04;10.70;99.90
1083;DHT22;530;51.448;7.238;2022-12-29T15:30:30;10.70;99.90
1083;DHT22;530;51.448;7.238;2022-12-29T15:32:56;10.70;99.90
1083;DHT22;530;51.448;7.238;2022-12-29T15:35:32;10.60;99.90
1083;DHT22;530;51.448;7.238;2022-12-29T15:38:00;10.60;99.90
1083;DHT22;530;51.448;7.238;2022-12-29T15:40:29;10.60;99.90
1083;DHT22;530;51.448;7.238;2022-12-29T15:43:02;10.60;99.90
1083;DHT22;530;51.448;7.238;2022-12-29T15:45:33;10.70;99.90
1083;DHT22;530;51.448;7.238;2022-12-29T15:48:00;10.60;99.90
1083;DHT22;530;51.448;7.238;2022-12-29T15:50:34;10.60;99.90
1083;DHT22;530;51.448;7.238;2022-12-29T15:53:02;10.60;99.90
1083;DHT22;530;51.448;7.238;2022-12-29T15:55:35;10.60;99.90
1083;DHT22;530;51.448;7.238;2022-12-29T15:58:04;10.60;99.90
1083;DHT22;530;51.448;7.238;2022-12-29T16:00:34;10.60;99.90
1083;DHT22;530;51.448;7.238;2022-12-29T16:03:01;10.70;99.90
1083;DHT22;530;51.448;7.238;2022-12-29T16:05:36;10.60;99.90
1083;DHT22;530;51.448;7.238;2022-12-29T16:08:03;10.60;99.90
1083;DHT22;530;51.448;7.238;2022-12-29T16:10:43;10.60;99.90
1083;DHT22;530;51.448;7.238;2022-12-29T16:15:58;10.60;99.90
1083;DHT22;530;51.448;7.238;2022-12-29T16:18:27;10.60;99.90
1083;DHT22;530;51.448;7.238;2022-12-29T16:20:55;10.60;99.90
1083;DHT22;530;51.448;7.238;2022-12-29T16:23:27;10.60;99.90
1083;DHT22;530;51.448;7.238;2022-12-29T16:25:55;10.60;99.90
1083;DHT22;530;51.448;7.238;2022-12-29T16:28:26;10.60;99.90
1083;DHT22;530;51.448;7.238;2022-12-29T16:31:13;10.50;99.90
1083;DHT22;530;51.448;7.238;2022-12-29T16:33:47;10.50;99.90
1083;DHT22;530;51.448;7.238;2022-12-29T16:39:05;10.50;99.90
1083;DHT22;530;51.448;7.238;2022-12-29T16:41:36;10.50;99.90
1083;DHT22;530;51.448;7.238;2022-12-29T16:49:30;10.40;99.90
1083;DHT22;530;51.448;7.238;2022-12-29T16:51:56;10.40;99.90
1083;DHT22;530;51.448;7.238;2022-12-29T16:54:35;10.40;99.90
1083;DHT22;530;51.448;7.238;2022-12-29T16:57:01;10.40;99.90
1083;DHT22;530;51.448;7.238;2022-12-29T16:59:40;10.40;99.90
1083;DHT22;530;51.448;7.238;2022-12-29T17:02:16;10.40;99.90
1083;DHT22;530;51.448;7.238;2022-12-29T17:04:44;10.30;99.90
1083;DHT22;530;51.448;7.238;2022-12-29T17:07:19;10.30;99.90
1083;DHT22;530;51.448;7.238;2022-12-29T17:09:45;10.40;99.90
1083;DHT22;530;51.448;7.238;2022-12-29T17:12:16;10.30;99.90
1083;DHT22;530;51.448;7.238;2022-12-29T17:14:57;10.30;99.90
1083;DHT22;530;51.448;7.238;2022-12-29T17:17:33;10.30;99.90
1083;DHT22;530;51.448;7.238;2022-12-29T17:22:43;10.30;99.90
1083;DHT22;530;51.448;7.238;2022-12-29T17:25:13;10.30;99.90
1083;DHT22;530;51.448;7.238;2022-12-29T17:27:46;10.30;99.90
1083;DHT22;530;51.448;7.238;2022-12-29T17:30:15;10.30;99.90
1083;DHT22;530;51.448;7.238;2022-12-29T17:32:45;10.30;99.90
1083;DHT22;530;51.448;7.238;2022-12-29T17:35:17;10.30;99.90
1083;DHT22;530;51.448;7.238;2022-12-29T17:37:43;10.30;99.90
1083;DHT22;530;51.448;7.238;2022-12-29T17:40:16;10.20;99.90
1083;DHT22;530;51.448;7.238;2022-12-29T17:42:46;10.20;99.90
1083;DHT22;530;51.448;7.238;2022-12-29T17:45:16;10.20;99.90
1083;DHT22;530;51.448;7.238;2022-12-29T17:47:43;10.20;99.90
1083;DHT22;530;51.448;7.238;2022-12-29T17:50:13;10.20;99.90
1083;DHT22;530;51.448;7.238;2022-12-29T17:52:40;10.20;99.90
1083;DHT22;530;51.448;7.238;2022-12-29T17:55:08;10.20;99.90
1083;DHT22;530;51.448;7.238;2022-12-29T17:57:38;10.20;99.90
1083;DHT22;530;51.448;7.238;2022-12-29T18:00:04;10.20;99.90
1083;DHT22;530;51.448;7.238;2022-12-29T18:02:31;10.10;99.90
1083;DHT22;530;51.448;7.238;2022-12-29T18:04:58;10.00;99.90
1083;DHT22;530;51.448;7.238;2022-12-29T18:07:28;9.90;99.90
1083;DHT22;530;51.448;7.238;2022-12-29T18:09:54;9.90;99.90
1083;DHT22;530;51.448;7.238;2022-12-29T18:12:34;9.80;99.90
1083;DHT22;530;51.448;7.238;2022-12-29T18:15:03;9.80;99.90
1083;DHT22;530;51.448;7.238;2022-12-29T18:17:28;9.80;99.90
1083;DHT22;530;51.448;7.238;2022-12-29T18:19:54;9.70;99.90
1083;DHT22;530;51.448;7.238;2022-12-29T18:22:22;9.70;99.90
1083;DHT22;530;51.448;7.238;2022-12-29T18:24:48;9.70;99.90
1083;DHT22;530;51.448;7.238;2022-12-29T18:27:14;9.70;99.90
1083;DHT22;530;51.448;7.238;2022-12-29T18:29:40;9.60;99.90
1083;DHT22;530;51.448;7.238;2022-12-29T18:32:13;9.60;99.90
1083;DHT22;530;51.448;7.238;2022-12-29T18:34:40;9.50;99.90
1083;DHT22;530;51.448;7.238;2022-12-29T18:37:07;9.50;99.90
1083;DHT22;530;51.448;7.238;2022-12-29T18:39:32;9.40;99.90
1083;DHT22;530;51.448;7.238;2022-12-29T18:41:58;9.40;99.90
1083;DHT22;530;51.448;7.238;2022-12-29T18:44:24;9.40;99.90
1083;DHT22;530;51.448;7.238;2022-12-29T18:46:49;9.40;99.90
1083;DHT22;530;51.448;7.238;2022-12-29T18:49:15;9.30;99.90
1083;DHT22;530;51.448;7.238;2022-12-29T18:51:41;9.30;99.90
1083;DHT22;530;51.448;7.238;2022-12-29T18:54:22;9.30;99.90
1083;DHT22;530;51.448;7.238;2022-12-29T18:56:49;8.90;99.90
1083;DHT22;530;51.448;7.238;2022-12-29T18:59:15;9.20;99.90
1083;DHT22;530;51.448;7.238;2022-12-29T19:01:41;9.30;99.90
1083;DHT22;530;51.448;7.238;2022-12-29T19:04:07;9.20;99.90
1083;DHT22;530;51.448;7.238;2022-12-29T19:06:34;9.20;99.90
1083;DHT22;530;51.448;7.238;2022-12-29T19:09:00;9.20;99.90